Fletcher, Vermont
Current Conditions -  °F | °C
As of 8:27 PM on Thursday 27 Nov 2014 (Local Time) from KMVL Reporting Station
Overcast Overcast  
Wind Chill: 16°   Ceiling: 3000
Heat Index: 25°   Visibility: 10mi
Dew Point: 17°   Wind: 8mph
Humidity: 72%   Direction: 330°NNW
Pressure: 30.04"   Gusts: NA
Location:  44.6543°N, 72.8545°W
Report Text: KMVL 280127Z AUTO 33007KT 10SM SCT023 OVC030 M04/M08 A3004 RMK AO2 T10391083 TSNO
Loading
Personal Weather Stations






























Interactive Weather Map New forecast layout! Learn more

10-Day Weather Forecast

Advertisements
Track Severe Weather on mobile